Union, Utah
Current Conditions -  °F | °C
As of 2:53 AM on Sunday 23 Nov 2014 (Local Time) from KSLC Reporting Station
Broken Clouds Broken Clouds  
Wind Chill: 27°   Ceiling: 6000
Heat Index: 37°   Visibility: 10mi
Dew Point: 26°   Wind: 17mph
Humidity: 65%   Direction: 300°WNW
Pressure: 30.02"   Gusts: 26mph
Location:  40.615°N, 111.891°W
Report Text: KSLC 230953Z 30015G23KT 10SM FEW044 BKN060 BKN075 03/M03 A3002 RMK AO2 SLP159 SH DSNT NE-E T00281033
Loading
Personal Weather Stations






























Interactive Weather Map New forecast layout! Learn more

10-Day Weather Forecast

Advertisements
Track Severe Weather on mobile